Time;durP1;ratioP1;P1;durP2;ratioP2;P2;SDS_P1;SDS_P2;PMS_P1;PMS_P2;Temp;Humidity;BMP_temperature;BMP_pressure;BME280_temperature;BME280_humidity;BME280_pressure;Samples;Min_cycle;Max_cycle;Signal;HPM_P1;HPM_P2
2021/12/22 00:01:04;;;;;;;5.20;3.00;;;;;;;-8.18;71.83;99084.00;102128;1318;74847;-20
2021/12/22 00:03:32;;;;;;;4.40;1.90;;;;;;;-8.05;71.07;99086.81;102152;1312;74601;-20
2021/12/22 00:06:01;;;;;;;5.60;2.70;;;;;;;-8.13;71.32;99092.58;102287;1314;74555;-19
2021/12/22 00:08:30;;;;;;;4.20;2.10;;;;;;;-8.50;72.87;99095.44;102230;1316;61196;-20
2021/12/22 00:10:59;;;;;;;7.60;2.90;;;;;;;-8.66;73.39;99094.67;102216;1317;61199;-20
2021/12/22 00:13:29;;;;;;;5.60;2.90;;;;;;;-8.92;74.24;99099.25;102264;1317;74723;-19
2021/12/22 00:15:58;;;;;;;7.70;3.20;;;;;;;-9.25;75.26;99104.50;102271;1319;74414;-19
2021/12/22 00:18:26;;;;;;;4.90;2.50;;;;;;;-9.33;76.38;99112.59;102237;1316;74262;-19
2021/12/22 00:20:54;;;;;;;5.50;2.70;;;;;;;-8.90;75.16;99108.16;102019;1317;62804;-19
2021/12/22 00:23:22;;;;;;;3.90;2.40;;;;;;;-8.48;73.65;99101.16;102010;1313;62083;-20
2021/12/22 00:25:51;;;;;;;3.60;1.90;;;;;;;-8.38;72.57;99113.91;102137;1316;75617;-20
2021/12/22 00:28:20;;;;;;;3.80;2.00;;;;;;;-8.46;71.65;99125.40;102082;1316;75836;-20
2021/12/22 00:30:50;;;;;;;5.30;2.40;;;;;;;-8.66;72.26;99132.88;102154;1317;73460;-19
2021/12/22 00:33:19;;;;;;;5.00;2.20;;;;;;;-8.98;73.44;99137.29;102270;1316;61931;-20
2021/12/22 00:35:47;;;;;;;5.20;2.20;;;;;;;-9.31;74.31;99139.31;102082;1317;61276;-19
2021/12/22 00:38:17;;;;;;;7.30;2.80;;;;;;;-9.72;74.98;99145.65;102142;1316;74620;-19
2021/12/22 00:40:46;;;;;;;1.50;0.80;;;;;;;-9.49;75.24;99150.89;102231;1319;75889;-19
2021/12/22 00:43:15;;;;;;;5.10;2.40;;;;;;;-8.82;72.89;99160.16;102009;1314;74229;-19
2021/12/22 00:45:44;;;;;;;5.70;2.80;;;;;;;-8.67;71.89;99160.48;102274;1318;61427;-20
2021/12/22 00:48:13;;;;;;;6.50;2.40;;;;;;;-8.99;72.68;99159.67;102294;1319;61227;-19
2021/12/22 00:50:42;;;;;;;6.90;2.60;;;;;;;-9.37;74.13;99159.98;102241;1319;75761;-20
2021/12/22 00:53:10;;;;;;;7.40;2.90;;;;;;;-9.70;75.25;99162.78;102357;1317;74830;-19
2021/12/22 00:55:39;;;;;;;2.60;1.50;;;;;;;-10.01;76.36;99170.76;102263;1319;74541;-19
2021/12/22 00:58:07;;;;;;;2.20;1.00;;;;;;;-10.13;77.13;99172.05;102141;1319;63501;-19
2021/12/22 01:00:35;;;;;;;3.60;1.90;;;;;;;-9.53;75.40;99174.59;102230;1316;61120;-19
2021/12/22 01:03:04;;;;;;;6.40;2.70;;;;;;;-9.17;74.63;99176.99;102185;1319;75618;-20
2021/12/22 01:05:32;;;;;;;3.80;3.00;;;;;;;-9.06;73.72;99176.84;102055;1319;75316;-20
2021/12/22 01:08:01;;;;;;;4.30;2.50;;;;;;;-9.35;74.46;99177.81;102085;1317;74679;-20
2021/12/22 01:10:30;;;;;;;2.00;1.30;;;;;;;-9.62;75.53;99184.33;102290;1317;61222;-19
2021/12/22 01:13:00;;;;;;;3.90;1.60;;;;;;;-9.86;75.95;99182.56;102232;1317;62339;-19
2021/12/22 01:15:28;;;;;;;3.30;1.90;;;;;;;-10.15;77.07;99192.36;102202;1317;73202;-20
2021/12/22 01:18:02;;;;;;;2.50;1.80;;;;;;;-10.08;77.90;99192.72;102327;1317;75015;-20
2021/12/22 01:20:48;;;;;;;8.10;4.60;;;;;;;-9.36;75.01;99194.12;102249;1317;74511;-20
2021/12/22 01:23:19;;;;;;;5.10;2.50;;;;;;;-9.16;73.66;99198.17;102244;1314;61148;-19
2021/12/22 01:25:48;;;;;;;5.50;2.70;;;;;;;-9.30;74.05;99197.52;102251;1317;61994;-19
2021/12/22 01:28:17;;;;;;;8.20;4.10;;;;;;;-9.41;74.63;99186.05;102248;1318;74637;-19
2021/12/22 01:30:49;;;;;;;5.50;2.70;;;;;;;-9.65;75.69;99195.23;102211;1317;75172;-19
2021/12/22 01:33:17;;;;;;;5.60;2.80;;;;;;;-9.98;76.68;99206.21;102206;1318;74405;-19
2021/12/22 01:35:46;;;;;;;3.70;1.20;;;;;;;-10.04;77.31;99206.18;102030;1313;62956;-19
2021/12/22 01:38:14;;;;;;;2.00;1.30;;;;;;;-9.37;75.82;99205.39;102158;1317;61117;-19
2021/12/22 01:40:45;;;;;;;2.10;1.40;;;;;;;-8.74;73.60;99211.66;102275;1316;75665;-19
2021/12/22 01:43:16;;;;;;;5.10;2.20;;;;;;;-8.76;72.20;99211.50;101767;1317;72944;-19
2021/12/22 01:51:51;;;;;;;2.10;1.70;;;;;;;-10.11;74.66;99211.69;102236;1317;61552;-19
2021/12/22 01:54:43;;;;;;;2.50;1.20;;;;;;;-10.56;78.08;99216.84;102300;1319;75344;-19
2021/12/22 01:57:12;;;;;;;3.10;1.00;;;;;;;-9.88;75.93;99213.80;102268;1313;76106;-20
2021/12/22 01:59:41;;;;;;;3.70;1.60;;;;;;;-9.51;73.40;99210.73;102241;1316;74488;-19
2021/12/22 02:02:10;;;;;;;3.00;1.80;;;;;;;-9.69;73.40;99206.82;102266;1319;61231;-19
2021/12/22 02:04:39;;;;;;;2.50;1.40;;;;;;;-9.95;73.89;99216.13;102231;1313;61822;-19
2021/12/22 02:07:10;;;;;;;3.60;1.80;;;;;;;-10.33;74.93;99218.30;102249;1319;74794;-20
2021/12/22 02:12:10;;;;;;;2.60;1.30;;;;;;;-10.66;75.88;99223.48;102259;1314;74349;-19
2021/12/22 02:14:40;;;;;;;3.30;1.50;;;;;;;-10.11;74.22;99223.27;102117;1318;62680;-19
2021/12/22 02:17:11;;;;;;;4.60;2.40;;;;;;;-9.61;72.10;99222.65;102294;1316;61209;-19
2021/12/22 02:19:43;;;;;;;6.00;2.00;;;;;;;-9.74;71.95;99226.48;102280;1317;75586;-19
2021/12/22 02:22:14;;;;;;;2.00;1.30;;;;;;;-10.06;72.79;99223.64;102056;1319;72062;-20
2021/12/22 02:24:52;;;;;;;5.20;2.80;;;;;;;-10.41;73.80;99221.29;102187;1317;71246;-19
2021/12/22 02:27:28;;;;;;;6.10;2.00;;;;;;;-10.72;74.91;99221.25;102037;1314;61217;-19
2021/12/22 02:30:03;;;;;;;2.80;1.50;;;;;;;-10.85;75.00;99227.20;102105;1319;61579;-19
2021/12/22 02:33:08;;;;;;;5.70;2.70;;;;;;;-10.31;73.69;99232.07;102217;1316;75412;-20
2021/12/22 02:35:43;;;;;;;4.50;1.90;;;;;;;-9.94;71.88;99229.07;102224;1313;76253;-20
2021/12/22 02:38:16;;;;;;;4.10;1.80;;;;;;;-10.29;72.51;99233.60;102159;1317;74288;-19
2021/12/22 02:40:47;;;;;;;4.40;2.30;;;;;;;-10.52;73.06;99234.83;102248;1317;61146;-19
2021/12/22 02:43:20;;;;;;;5.60;2.40;;;;;;;-10.83;74.18;99238.79;102133;1313;62095;-19
2021/12/22 02:45:49;;;;;;;3.20;2.20;;;;;;;-11.06;75.11;99237.77;102182;1313;74590;-19
2021/12/22 02:48:18;;;;;;;22.00;5.80;;;;;;;-10.65;75.11;99236.56;102301;1319;76120;-19
2021/12/22 02:50:46;;;;;;;37.20;8.00;;;;;;;-10.04;72.56;99240.13;102207;1317;74429;-19
2021/12/22 02:53:16;;;;;;;30.30;8.90;;;;;;;-9.92;71.60;99236.14;102067;1319;61173;-19
2021/12/22 02:55:49;;;;;;;48.00;14.80;;;;;;;-10.13;71.88;99233.68;102193;1314;61119;-19
2021/12/22 02:58:38;;;;;;;52.50;15.80;;;;;;;-10.45;72.54;99236.70;102264;1314;75697;-19
2021/12/22 03:03:57;;;;;;;5.60;1.60;;;;;;;-11.03;73.92;99237.44;102162;1314;74488;-19
2021/12/22 03:06:33;;;;;;;3.10;1.40;;;;;;;-10.23;72.00;99244.04;102173;1314;61170;-20
2021/12/22 03:09:33;;;;;;;2.30;2.10;;;;;;;-9.96;70.68;99247.88;101881;1317;61186;-19
2021/12/22 03:12:04;;;;;;;3.20;1.80;;;;;;;-10.19;71.62;99245.75;102173;1314;74207;-18
2021/12/22 03:14:48;;;;;;;3.90;2.10;;;;;;;-10.55;73.28;99246.39;102260;1312;74544;-19
2021/12/22 03:17:17;;;;;;;3.20;1.90;;;;;;;-10.96;74.41;99249.08;102284;1312;74198;-19
2021/12/22 03:19:45;;;;;;;6.80;1.70;;;;;;;-11.04;75.58;99246.66;102258;1319;62267;-19
2021/12/22 03:22:18;;;;;;;3.20;1.80;;;;;;;-10.44;74.08;99247.11;102289;1317;61205;-19
2021/12/22 03:24:48;;;;;;;8.30;5.30;;;;;;;-9.91;71.82;99245.55;102198;1313;75345;-19
2021/12/22 03:27:17;;;;;;;2.40;1.70;;;;;;;-9.66;70.54;99244.48;102222;1313;76148;-19
2021/12/22 03:29:47;;;;;;;3.70;2.00;;;;;;;-9.90;69.70;99253.29;101907;1317;74570;-19
2021/12/22 03:32:16;;;;;;;2.80;1.50;;;;;;;-10.29;70.81;99253.08;102108;1313;61196;-19
2021/12/22 03:34:44;;;;;;;2.40;1.20;;;;;;;-10.62;71.83;99255.23;102116;1312;62193;-19
2021/12/22 03:37:13;;;;;;;0.90;0.80;;;;;;;-10.79;72.30;99255.09;102160;1314;75718;-19
2021/12/22 03:39:41;;;;;;;2.60;1.10;;;;;;;-10.17;72.10;99258.86;102318;1313;76210;-19
2021/12/22 03:42:10;;;;;;;1.50;1.30;;;;;;;-9.65;69.74;99257.76;102292;1317;73457;-19
2021/12/22 03:44:38;;;;;;;3.50;1.40;;;;;;;-9.69;69.13;99262.61;102330;1313;61349;-19
2021/12/22 03:47:08;;;;;;;3.20;1.20;;;;;;;-9.98;69.57;99262.82;102257;1316;61901;-19
2021/12/22 03:49:37;;;;;;;1.90;1.40;;;;;;;-10.32;70.30;99269.19;102204;1313;75341;-20
2021/12/22 03:52:05;;;;;;;0.80;0.70;;;;;;;-10.69;70.84;99267.24;102218;1313;74846;-19
2021/12/22 03:54:34;;;;;;;0.70;0.60;;;;;;;-10.84;71.78;99268.98;102283;1313;73439;-19
2021/12/22 03:57:02;;;;;;;1.10;0.90;;;;;;;-10.20;71.34;99274.29;102246;1314;61230;-19
2021/12/22 03:59:31;;;;;;;2.00;1.00;;;;;;;-9.83;69.68;99279.87;102205;1312;61239;-19
2021/12/22 04:01:59;;;;;;;1.60;1.10;;;;;;;-9.94;69.53;99277.79;102099;1313;74283;-19
2021/12/22 04:04:28;;;;;;;3.30;1.00;;;;;;;-10.28;70.02;99278.77;102168;1313;76004;-19
2021/12/22 04:06:57;;;;;;;2.00;1.30;;;;;;;-10.71;70.68;99281.34;102184;1312;74293;-19
2021/12/22 04:09:27;;;;;;;1.60;1.00;;;;;;;-11.10;71.58;99278.45;102042;1313;61211;-19
2021/12/22 04:11:56;;;;;;;2.40;1.00;;;;;;;-10.92;71.96;99278.80;101970;1312;202878;-19
2021/12/22 04:14:24;;;;;;;1.40;1.00;;;;;;;-10.27;70.22;99279.28;102261;1312;75299;-19
2021/12/22 04:16:52;;;;;;;0.70;0.70;;;;;;;-10.19;69.34;99281.02;102208;1313;76518;-19
2021/12/22 04:19:21;;;;;;;0.60;0.60;;;;;;;-10.45;69.49;99282.52;102271;1317;73517;-19
2021/12/22 04:21:50;;;;;;;2.70;1.30;;;;;;;-10.86;70.58;99288.24;102189;1313;61842;-19
2021/12/22 04:24:18;;;;;;;0.70;0.50;;;;;;;-11.22;71.61;99287.07;102109;1317;61839;-19
2021/12/22 04:26:47;;;;;;;0.60;0.60;;;;;;;-11.34;72.45;99289.61;102284;1313;73139;-19
2021/12/22 04:29:15;;;;;;;0.60;0.60;;;;;;;-10.69;70.73;99294.42;102268;1312;75223;-19
2021/12/22 04:31:43;;;;;;;1.00;0.60;;;;;;;-10.26;68.97;99301.95;102272;1316;72270;-19
2021/12/22 04:34:12;;;;;;;1.90;0.90;;;;;;;-10.40;68.04;99303.21;102171;1312;61148;-19
2021/12/22 04:36:40;;;;;;;1.10;0.70;;;;;;;-10.79;68.25;99304.42;102191;1312;61159;-19
2021/12/22 04:39:20;;;;;;;0.90;0.70;;;;;;;-11.25;69.37;99306.98;102212;1313;75760;-19
2021/12/22 04:41:49;;;;;;;0.60;0.50;;;;;;;-11.58;70.22;99306.94;102137;1314;76144;-19
2021/12/22 04:44:18;;;;;;;0.90;0.90;;;;;;;-11.15;69.85;99311.44;102163;1316;73162;-19
2021/12/22 04:46:46;;;;;;;2.30;1.20;;;;;;;-10.56;68.30;99312.84;102008;1312;61192;-19
2021/12/22 04:49:15;;;;;;;1.50;1.10;;;;;;;-10.55;67.94;99316.88;102149;1314;61217;-19
2021/12/22 04:51:52;;;;;;;1.70;1.10;;;;;;;-10.85;67.81;99318.95;102052;1316;75438;-19
2021/12/22 04:56:55;;;;;;;0.40;0.40;;;;;;;-11.58;71.21;99326.89;102249;1313;73269;-19
2021/12/22 04:59:24;;;;;;;2.90;0.80;;;;;;;-11.23;71.57;99330.96;102205;1313;63743;-19
2021/12/22 05:01:53;;;;;;;1.40;0.80;;;;;;;-10.43;69.21;99334.25;102180;1312;61256;-19
2021/12/22 05:04:21;;;;;;;1.60;0.80;;;;;;;-10.26;68.01;99335.71;102162;1313;74121;-19
2021/12/22 05:06:51;;;;;;;1.40;0.90;;;;;;;-10.52;68.10;99333.84;102145;1312;75848;-19
2021/12/22 05:09:21;;;;;;;1.60;1.00;;;;;;;-10.89;68.60;99332.34;102080;1313;73160;-19
2021/12/22 05:11:51;;;;;;;2.40;0.50;;;;;;;-11.23;70.31;99329.13;102213;1314;61321;-19
2021/12/22 05:14:19;;;;;;;1.90;0.90;;;;;;;-11.29;70.90;99329.88;102161;1313;61194;-19
2021/12/22 05:16:51;;;;;;;2.00;0.60;;;;;;;-10.57;69.96;99333.97;102073;1313;74741;-19
2021/12/22 05:19:20;;;;;;;1.90;1.00;;;;;;;-10.20;67.68;99338.11;102146;1313;75847;-19
2021/12/22 05:21:48;;;;;;;1.80;1.20;;;;;;;-10.41;67.61;99333.75;102124;1312;74432;-19
2021/12/22 05:24:16;;;;;;;0.90;0.80;;;;;;;-10.78;68.52;99330.92;102274;1314;61103;-19
2021/12/22 05:26:45;;;;;;;1.80;1.00;;;;;;;-11.16;69.52;99335.58;102226;1312;62144;-19
2021/12/22 05:29:13;;;;;;;1.00;0.70;;;;;;;-11.51;70.58;99337.20;102266;1312;74552;-19
2021/12/22 05:31:42;;;;;;;0.60;0.60;;;;;;;-11.09;69.90;99340.67;102273;1312;75998;-20
2021/12/22 05:34:10;;;;;;;3.20;1.60;;;;;;;-10.54;68.32;99343.58;102260;1312;74248;-19
2021/12/22 05:36:39;;;;;;;2.20;1.30;;;;;;;-10.59;67.17;99344.02;102283;1317;61211;-19
2021/12/22 05:39:07;;;;;;;4.60;1.60;;;;;;;-10.97;67.81;99347.34;102331;1316;61230;-19
2021/12/22 05:41:36;;;;;;;3.90;2.00;;;;;;;-11.51;69.48;99343.89;102202;1317;75129;-19
2021/12/22 05:44:05;;;;;;;2.00;1.10;;;;;;;-11.83;70.85;99343.80;102151;1312;76126;-19
2021/12/22 05:46:34;;;;;;;4.90;2.00;;;;;;;-11.54;70.67;99351.71;102296;1313;72968;-19
2021/12/22 05:49:02;;;;;;;2.50;1.30;;;;;;;-10.83;68.42;99352.52;102232;1312;61391;-19
2021/12/22 05:51:33;;;;;;;1.80;1.20;;;;;;;-10.76;66.70;99351.75;102329;1313;62126;-19
2021/12/22 05:54:02;;;;;;;2.60;1.00;;;;;;;-11.08;67.40;99355.61;102135;1313;72590;-19
2021/12/22 05:56:31;;;;;;;3.00;1.30;;;;;;;-11.49;68.63;99352.11;102234;1316;75168;-19
2021/12/22 05:59:02;;;;;;;1.70;0.90;;;;;;;-11.90;69.76;99352.92;102232;1313;74405;-19
2021/12/22 06:01:32;;;;;;;1.80;1.00;;;;;;;-11.74;70.73;99355.98;102238;1313;61524;-19
2021/12/22 06:04:02;;;;;;;1.90;1.20;;;;;;;-10.98;68.96;99361.26;102262;1312;61226;-19
2021/12/22 06:06:31;;;;;;;2.80;1.60;;;;;;;-10.78;67.30;99365.50;102242;1312;74729;-19
2021/12/22 06:09:04;;;;;;;4.50;1.40;;;;;;;-11.05;67.75;99362.70;102260;1313;76075;-19
2021/12/22 06:11:51;;;;;;;1.70;1.20;;;;;;;-11.45;68.72;99364.90;102106;1313;74435;-19
2021/12/22 06:14:19;;;;;;;2.10;0.90;;;;;;;-11.79;69.43;99361.11;102162;1312;61964;-19
2021/12/22 06:16:47;;;;;;;1.20;0.80;;;;;;;-11.60;70.02;99365.71;102277;1314;61152;-19
2021/12/22 06:19:15;;;;;;;2.10;1.00;;;;;;;-10.89;68.75;99373.77;102211;1312;75699;-19
2021/12/22 06:21:46;;;;;;;1.80;1.40;;;;;;;-10.72;67.34;99377.98;102275;1313;73832;-19
2021/12/22 06:24:15;;;;;;;2.40;1.70;;;;;;;-10.95;66.95;99376.73;102293;1317;72593;-19
2021/12/22 06:26:43;;;;;;;1.50;1.20;;;;;;;-11.27;68.00;99380.55;102262;1313;61106;-19
2021/12/22 06:29:11;;;;;;;1.70;0.90;;;;;;;-11.66;68.88;99385.92;102250;1313;61108;-19
2021/12/22 06:31:40;;;;;;;2.50;0.90;;;;;;;-11.78;69.67;99385.23;102324;1313;74182;-19
2021/12/22 06:34:13;;;;;;;;;;;;;;;-11.12;68.89;99394.13;102306;1313;76659;-20
2021/12/22 06:36:41;;;;;;;2.70;1.30;;;;;;;-10.77;67.47;99397.55;102264;1313;72940;-19
2021/12/22 06:39:09;;;;;;;1.80;1.00;;;;;;;-10.89;68.34;99396.25;102271;1313;61131;-19
2021/12/22 06:41:38;;;;;;;4.70;2.10;;;;;;;-11.14;68.74;99401.34;102257;1312;61530;-19
2021/12/22 06:44:06;;;;;;;3.50;2.10;;;;;;;-11.51;70.09;99403.52;102240;1313;74819;-19
2021/12/22 06:46:36;;;;;;;2.70;1.10;;;;;;;-11.86;71.35;99401.88;102239;1312;73287;-19
2021/12/22 06:49:04;;;;;;;4.30;1.30;;;;;;;-11.48;71.29;99406.09;102202;1312;74429;-19
2021/12/22 06:51:32;;;;;;;2.60;1.60;;;;;;;-10.76;69.12;99409.81;102227;1317;61091;-19
2021/12/22 06:54:00;;;;;;;2.70;1.80;;;;;;;-10.59;68.27;99412.16;102298;1312;61077;-19
2021/12/22 06:56:29;;;;;;;3.50;1.70;;;;;;;-10.77;68.56;99416.84;102195;1313;74785;-19
2021/12/22 06:58:59;;;;;;;2.00;1.60;;;;;;;-10.98;69.69;99415.94;102254;1312;76035;-19
2021/12/22 07:01:31;;;;;;;1.30;0.90;;;;;;;-11.18;70.49;99418.04;102226;1316;74488;-19
2021/12/22 07:04:00;;;;;;;2.00;1.20;;;;;;;-11.32;71.41;99424.08;102202;1313;61904;-19
2021/12/22 07:06:30;;;;;;;1.70;1.00;;;;;;;-11.41;71.76;99427.80;102330;1312;61042;-19
2021/12/22 07:08:59;;;;;;;1.80;1.00;;;;;;;-10.92;71.57;99424.22;102272;1312;75891;-19
2021/12/22 07:11:27;;;;;;;1.50;1.10;;;;;;;-10.03;69.12;99429.92;102293;1312;76085;-19
2021/12/22 07:13:56;;;;;;;2.50;1.60;;;;;;;-9.78;67.68;99433.33;102254;1312;74949;-19
2021/12/22 07:16:24;;;;;;;2.80;1.80;;;;;;;-9.81;67.55;99439.34;102256;1316;61306;-19
2021/12/22 07:18:53;;;;;;;4.10;1.90;;;;;;;-9.94;68.36;99440.25;102285;1314;62161;-19
2021/12/22 07:21:22;;;;;;;2.40;1.80;;;;;;;-10.08;68.96;99440.96;102230;1312;74331;-19
2021/12/22 07:23:51;;;;;;;6.10;1.70;;;;;;;-10.25;69.19;99443.35;101864;1314;75316;-19
2021/12/22 07:26:23;;;;;;;6.20;1.40;;;;;;;-10.42;70.48;99448.41;102240;1312;71083;-19
2021/12/22 07:28:52;;;;;;;3.30;1.90;;;;;;;-10.46;70.69;99453.75;102198;1312;61724;-19
2021/12/22 07:31:20;;;;;;;0.50;0.50;;;;;;;-10.54;70.84;99454.16;102111;1312;61178;-19
2021/12/22 07:33:58;;;;;;;2.30;1.60;;;;;;;-10.64;71.60;99459.45;102141;1313;75725;-19
2021/12/22 07:36:27;;;;;;;4.70;1.90;;;;;;;-10.08;71.63;99461.46;102209;1314;74024;-19
2021/12/22 07:39:01;;;;;;;4.80;2.30;;;;;;;-9.83;71.17;99455.79;102063;1313;73529;-19
2021/12/22 07:41:30;;;;;;;3.00;2.10;;;;;;;-9.71;70.95;99451.70;102076;1314;61085;-19
2021/12/22 07:43:59;;;;;;;6.60;2.50;;;;;;;-10.06;71.57;99455.59;102261;1316;61168;-19
2021/12/22 07:46:27;;;;;;;4.80;2.40;;;;;;;-10.42;72.83;99462.83;102214;1316;75618;-19
2021/12/22 07:48:55;;;;;;;5.90;3.50;;;;;;;-10.47;73.33;99464.14;102234;1312;75896;-18
2021/12/22 07:51:23;;;;;;;10.30;2.90;;;;;;;-10.88;74.99;99462.19;102223;1312;72879;-19
2021/12/22 07:53:52;;;;;;;3.80;2.30;;;;;;;-10.92;75.38;99459.11;102216;1316;61305;-19
2021/12/22 07:56:20;;;;;;;4.70;2.80;;;;;;;-10.95;75.49;99464.11;102252;1312;61283;-19
2021/12/22 07:58:48;;;;;;;5.20;3.10;;;;;;;-10.99;75.40;99467.92;102269;1317;74327;-19
2021/12/22 08:01:16;;;;;;;4.90;2.90;;;;;;;-11.11;75.95;99465.77;102190;1316;76172;-19
2021/12/22 08:03:45;;;;;;;3.70;2.40;;;;;;;-10.97;75.69;99471.80;102239;1313;72882;-19
2021/12/22 08:06:14;;;;;;;6.50;3.20;;;;;;;-10.44;74.30;99475.07;102247;1316;62788;-19
2021/12/22 08:08:42;;;;;;;3.50;2.20;;;;;;;-9.52;71.04;99476.51;102262;1316;61105;-19
2021/12/22 08:11:10;;;;;;;7.40;3.90;;;;;;;-9.34;69.51;99479.15;102148;1312;75648;-19
2021/12/22 08:13:38;;;;;;;2.90;2.00;;;;;;;-9.67;70.95;99477.09;102173;1313;76048;-19
2021/12/22 08:16:07;;;;;;;5.70;3.40;;;;;;;-9.79;71.42;99480.53;102209;1311;74487;-19
2021/12/22 08:18:36;;;;;;;3.30;2.20;;;;;;;-9.73;71.09;99488.64;102253;1312;61202;-19
2021/12/22 08:21:04;;;;;;;4.60;3.00;;;;;;;-9.60;70.68;99486.55;102280;1313;61125;-19
2021/12/22 08:23:36;;;;;;;3.80;2.60;;;;;;;-9.74;71.44;99484.27;102284;1316;75646;-19
2021/12/22 08:26:05;;;;;;;5.40;2.80;;;;;;;-9.88;72.37;99488.86;102286;1313;75904;-19
2021/12/22 08:28:33;;;;;;;3.60;2.70;;;;;;;-10.04;72.99;99490.89;102205;1312;73015;-19
2021/12/22 08:31:02;;;;;;;4.60;2.50;;;;;;;-10.17;73.66;99493.14;102180;1313;61415;-19
2021/12/22 08:33:33;;;;;;;3.30;2.20;;;;;;;-10.33;74.12;99494.15;102302;1314;61848;-19
2021/12/22 08:38:53;;;;;;;4.40;2.30;;;;;;;-10.27;75.11;99491.35;102267;1316;76007;-19
2021/12/22 08:41:24;;;;;;;5.20;2.30;;;;;;;-10.41;75.24;99486.35;102231;1313;73895;-20
2021/12/22 08:43:54;;;;;;;3.20;1.90;;;;;;;-10.13;74.96;99482.59;102171;1312;62197;-19
2021/12/22 08:46:22;;;;;;;2.50;1.60;;;;;;;-10.36;75.25;99477.34;102229;1313;61279;-19
2021/12/22 08:48:51;;;;;;;4.00;2.20;;;;;;;-10.24;75.17;99483.66;102199;1314;75764;-19
2021/12/22 08:51:21;;;;;;;3.10;2.10;;;;;;;-10.08;74.84;99485.66;102227;1312;75867;-19
2021/12/22 08:53:51;;;;;;;3.30;1.40;;;;;;;-9.93;74.26;99486.63;102272;1312;74405;-19
2021/12/22 08:56:20;;;;;;;4.70;2.50;;;;;;;-9.98;73.93;99482.38;102160;1314;61885;-19
2021/12/22 08:58:48;;;;;;;5.90;3.10;;;;;;;-10.02;74.69;99478.98;102201;1314;61783;-19
2021/12/22 09:01:17;;;;;;;10.10;3.70;;;;;;;-9.96;74.60;99480.06;102248;1312;75568;-19
2021/12/22 09:03:46;;;;;;;17.80;5.00;;;;;;;-10.02;74.59;99480.01;102158;1313;76026;-19
2021/12/22 09:06:14;;;;;;;35.60;11.20;;;;;;;-10.04;74.61;99474.42;102028;1316;74204;-19
2021/12/22 09:08:43;;;;;;;8.30;4.20;;;;;;;-9.92;74.58;99478.41;102094;1312;61346;-19
2021/12/22 09:11:12;;;;;;;34.80;7.50;;;;;;;-9.95;74.46;99476.87;102224;1313;61171;-19
2021/12/22 09:13:41;;;;;;;6.00;3.20;;;;;;;-9.91;74.10;99469.35;102197;1313;72631;-19
2021/12/22 09:16:10;;;;;;;4.00;1.60;;;;;;;-9.75;73.82;99471.15;102258;1312;75901;-19
2021/12/22 09:18:38;;;;;;;13.00;5.30;;;;;;;-9.37;72.65;99471.74;102260;1312;74508;-19
2021/12/22 09:21:08;;;;;;;7.50;3.10;;;;;;;-9.67;73.17;99461.64;102244;1313;61349;-19
2021/12/22 09:23:36;;;;;;;9.90;4.10;;;;;;;-9.75;73.91;99460.39;102131;1314;62118;-19
2021/12/22 09:26:05;;;;;;;21.20;7.20;;;;;;;-9.43;72.88;99463.98;102198;1313;75574;-19
2021/12/22 09:28:34;;;;;;;17.80;6.40;;;;;;;-9.51;72.85;99465.45;102248;1313;76030;-19
2021/12/22 09:31:07;;;;;;;16.90;5.80;;;;;;;-9.60;72.71;99464.36;102270;1312;74516;-19
2021/12/22 09:33:36;;;;;;;10.20;3.60;;;;;;;-9.62;73.51;99460.99;102250;1313;61976;-19
2021/12/22 09:36:06;;;;;;;5.90;3.30;;;;;;;-9.54;73.21;99460.88;101876;1319;61160;-19
2021/12/22 09:38:35;;;;;;;10.40;4.30;;;;;;;-9.38;72.37;99458.13;102242;1314;75526;-19
2021/12/22 09:41:03;;;;;;;8.90;4.20;;;;;;;-9.28;71.89;99460.88;102240;1310;76402;-19
2021/12/22 09:43:32;;;;;;;9.20;4.10;;;;;;;-9.29;72.02;99463.23;102234;1314;73628;-19
2021/12/22 09:46:05;;;;;;;5.80;3.50;;;;;;;-9.35;72.24;99459.98;102147;1313;62708;-20
2021/12/22 09:53:37;;;;;;;5.60;3.40;;;;;;;-8.43;71.96;99465.56;102081;1313;75876;-19
2021/12/22 09:56:05;;;;;;;5.10;3.00;;;;;;;-8.29;70.99;99463.39;101807;1313;73418;-19
2021/12/22 09:58:36;;;;;;;5.60;3.10;;;;;;;-8.09;70.32;99462.59;102125;1316;61842;-20
2021/12/22 10:01:05;;;;;;;3.40;2.30;;;;;;;-8.09;69.99;99465.63;102134;1312;61315;-19
2021/12/22 10:03:34;;;;;;;18.10;6.90;;;;;;;-8.08;69.84;99471.17;102112;1312;74684;-20
2021/12/22 10:06:02;;;;;;;20.10;6.90;;;;;;;-8.75;70.91;99475.59;102197;1313;76362;-19
2021/12/22 10:08:31;;;;;;;9.50;3.60;;;;;;;-8.77;71.48;99469.52;102142;1313;73178;-19
2021/12/22 10:11:19;;;;;;;9.90;4.40;;;;;;;-9.16;72.39;99469.85;102027;1312;63405;-19
2021/12/22 10:14:26;;;;;;;10.80;5.00;;;;;;;-8.98;72.72;99470.79;102099;1312;63275;-19
2021/12/22 10:16:55;;;;;;;1.00;0.80;;;;;;;-9.12;73.39;99468.86;102074;1307;71855;-19
2021/12/22 10:19:25;;;;;;;1.80;1.60;;;;;;;-8.83;72.02;99465.30;101395;1313;1003202;-19
2021/12/22 10:22:00;;;;;;;4.80;2.30;;;;;;;-8.82;71.74;99458.39;101854;1313;73442;-19
2021/12/22 10:24:42;;;;;;;9.40;3.90;;;;;;;-8.71;71.33;99460.13;101718;1314;61698;-19
2021/12/22 10:27:20;;;;;;;2.30;1.80;;;;;;;-8.02;69.40;99459.55;101906;1313;61269;-19
2021/12/22 10:29:49;;;;;;;5.00;2.00;;;;;;;-7.45;66.84;99458.70;101827;1313;75397;-19
2021/12/22 10:32:18;;;;;;;4.30;2.80;;;;;;;-7.60;66.77;99456.70;102033;1312;75781;-19
2021/12/22 10:35:05;;;;;;;2.70;2.00;;;;;;;-7.94;68.09;99457.55;102020;1312;74562;-19
2021/12/22 10:37:35;;;;;;;3.50;2.10;;;;;;;-8.03;68.10;99456.53;101982;1312;61233;-19
2021/12/22 10:40:29;;;;;;;4.70;3.00;;;;;;;-8.19;68.66;99461.73;101906;1313;61168;-19
2021/12/22 10:42:59;;;;;;;;;;;;;;;-8.33;69.33;99464.73;102161;1312;73958;-19
2021/12/22 10:45:30;;;;;;;4.80;2.00;;;;;;;-8.42;69.53;99463.20;102051;1313;76034;-19
2021/12/22 10:50:57;;;;;;;8.60;3.70;;;;;;;-8.66;70.76;99465.54;102180;1313;61174;-19
2021/12/22 10:53:26;;;;;;;7.20;3.10;;;;;;;-8.58;70.48;99455.45;102151;1316;61097;-19
2021/12/22 10:55:56;;;;;;;3.70;1.80;;;;;;;-8.02;69.33;99457.55;102253;1313;75698;-19
2021/12/22 10:58:28;;;;;;;4.30;2.60;;;;;;;-7.70;68.69;99453.16;102180;1313;76329;-19
2021/12/22 11:01:08;;;;;;;6.70;3.20;;;;;;;-7.53;67.43;99453.31;102231;1319;71959;-19
2021/12/22 11:03:47;;;;;;;7.20;4.00;;;;;;;-7.95;69.10;99452.98;102262;1313;62207;-19
2021/12/22 11:06:17;;;;;;;0.80;0.60;;;;;;;-8.07;69.50;99455.52;102034;1312;61187;-19
2021/12/22 11:09:04;;;;;;;6.40;3.20;;;;;;;-7.89;68.97;99460.41;101942;1312;75672;-19
2021/12/22 11:11:43;;;;;;;3.30;2.20;;;;;;;-8.13;70.11;99457.88;101965;1317;75305;-19
2021/12/22 11:14:11;;;;;;;5.80;3.10;;;;;;;-8.67;70.26;99454.75;101989;1312;73016;-19
2021/12/22 11:17:01;;;;;;;7.10;3.40;;;;;;;-8.77;71.03;99453.87;102066;1312;61115;-19
2021/12/22 11:19:36;;;;;;;4.00;1.80;;;;;;;-8.36;70.44;99452.29;101896;1313;61198;-19
2021/12/22 11:22:14;;;;;;;4.80;2.50;;;;;;;-7.41;67.19;99443.34;101648;1315;74788;-19
2021/12/22 11:24:50;;;;;;;8.50;3.10;;;;;;;-7.19;66.12;99441.26;101962;1313;74790;-19
2021/12/22 11:27:23;;;;;;;5.40;3.30;;;;;;;-7.45;66.24;99446.05;101717;1314;71364;-19
2021/12/22 11:29:57;;;;;;;4.30;2.60;;;;;;;-7.72;67.65;99452.83;102100;1317;61166;-19
2021/12/22 11:32:28;;;;;;;6.00;3.60;;;;;;;-7.91;68.62;99456.20;101729;1315;62304;-19
2021/12/22 11:34:57;;;;;;;7.90;3.40;;;;;;;-8.31;69.39;99457.52;101920;1313;74426;-19
2021/12/22 11:37:26;;;;;;;10.50;5.20;;;;;;;-8.66;70.51;99464.86;101783;1314;76889;-19
2021/12/22 11:39:55;;;;;;;15.70;5.60;;;;;;;-8.71;71.31;99471.23;101881;1313;74597;-19
2021/12/22 11:42:31;;;;;;;4.20;2.80;;;;;;;-8.91;71.55;99462.58;102046;1313;61199;-19
2021/12/22 11:45:02;;;;;;;5.10;3.10;;;;;;;-9.09;72.65;99457.61;102175;1313;61950;-19
2021/12/22 11:47:30;;;;;;;6.40;3.30;;;;;;;-8.51;71.35;99452.92;102153;1314;74192;-19
2021/12/22 11:50:00;;;;;;;7.00;3.00;;;;;;;-7.87;68.48;99456.37;102188;1312;74991;-19
2021/12/22 11:52:42;;;;;;;9.50;4.40;;;;;;;-8.04;68.04;99453.49;102123;1316;74367;-19
2021/12/22 11:55:23;;;;;;;8.90;4.20;;;;;;;-8.62;69.67;99452.73;102189;1313;61212;-19
2021/12/22 11:58:24;;;;;;;4.40;2.30;;;;;;;-8.97;70.34;99455.14;102267;1316;61230;-19
2021/12/22 12:00:53;;;;;;;4.60;2.70;;;;;;;-8.93;69.99;99455.99;102255;1312;75598;-19
2021/12/22 12:03:30;;;;;;;9.10;3.50;;;;;;;-9.09;69.96;99460.30;102279;1316;76148;-19